sensor_id;sensor_type;location;lat;lon;timestamp;P1;durP1;ratioP1;P2;durP2;ratioP2
9094;SDS011;4583;49.796;9.902;2022-10-31T00:03:43;38.60;;;10.13;;
9094;SDS011;4583;49.796;9.902;2022-10-31T00:13:45;33.20;;;10.57;;
9094;SDS011;4583;49.796;9.902;2022-10-31T00:23:47;19.93;;;8.60;;
9094;SDS011;4583;49.796;9.902;2022-10-31T00:33:49;17.27;;;7.20;;
9094;SDS011;4583;49.796;9.902;2022-10-31T00:43:51;25.33;;;7.63;;
9094;SDS011;4583;49.796;9.902;2022-10-31T00:53:53;46.27;;;6.87;;
9094;SDS011;4583;49.796;9.902;2022-10-31T01:03:54;17.70;;;6.53;;
9094;SDS011;4583;49.796;9.902;2022-10-31T01:13:56;65.20;;;9.30;;
9094;SDS011;4583;49.796;9.902;2022-10-31T01:23:58;15.80;;;7.27;;
9094;SDS011;4583;49.796;9.902;2022-10-31T01:34:00;25.20;;;7.00;;
9094;SDS011;4583;49.796;9.902;2022-10-31T01:54:17;96.73;;;8.43;;
9094;SDS011;4583;49.796;9.902;2022-10-31T02:04:22;10.17;;;6.57;;
9094;SDS011;4583;49.796;9.902;2022-10-31T02:14:26;36.47;;;6.33;;
9094;SDS011;4583;49.796;9.902;2022-10-31T02:35:03;15.00;;;5.70;;
9094;SDS011;4583;49.796;9.902;2022-10-31T02:45:30;22.90;;;5.47;;
9094;SDS011;4583;49.796;9.902;2022-10-31T03:06:38;15.67;;;5.60;;
9094;SDS011;4583;49.796;9.902;2022-10-31T03:16:47;9.33;;;4.80;;
9094;SDS011;4583;49.796;9.902;2022-10-31T03:26:51;15.57;;;5.40;;
9094;SDS011;4583;49.796;9.902;2022-10-31T03:36:57;18.47;;;4.60;;
9094;SDS011;4583;49.796;9.902;2022-10-31T03:47:01;7.03;;;4.47;;
9094;SDS011;4583;49.796;9.902;2022-10-31T04:07:15;13.17;;;5.00;;
9094;SDS011;4583;49.796;9.902;2022-10-31T04:17:20;9.00;;;5.10;;
9094;SDS011;4583;49.796;9.902;2022-10-31T04:27:25;13.93;;;4.73;;
9094;SDS011;4583;49.796;9.902;2022-10-31T04:37:26;16.93;;;5.00;;
9094;SDS011;4583;49.796;9.902;2022-10-31T04:47:30;33.73;;;5.30;;
9094;SDS011;4583;49.796;9.902;2022-10-31T04:57:45;13.67;;;5.17;;
9094;SDS011;4583;49.796;9.902;2022-10-31T05:07:48;7.97;;;5.33;;
9094;SDS011;4583;49.796;9.902;2022-10-31T05:17:51;23.27;;;5.83;;
9094;SDS011;4583;49.796;9.902;2022-10-31T05:27:55;5.63;;;5.07;;
9094;SDS011;4583;49.796;9.902;2022-10-31T05:37:57;17.37;;;5.10;;
9094;SDS011;4583;49.796;9.902;2022-10-31T05:48:00;32.53;;;6.07;;
9094;SDS011;4583;49.796;9.902;2022-10-31T05:58:03;7.57;;;5.83;;
9094;SDS011;4583;49.796;9.902;2022-10-31T06:08:05;22.63;;;6.60;;
9094;SDS011;4583;49.796;9.902;2022-10-31T06:18:06;13.30;;;6.40;;
9094;SDS011;4583;49.796;9.902;2022-10-31T06:28:09;14.00;;;5.93;;
9094;SDS011;4583;49.796;9.902;2022-10-31T06:38:11;45.87;;;6.60;;
9094;SDS011;4583;49.796;9.902;2022-10-31T06:48:12;36.60;;;6.60;;
9094;SDS011;4583;49.796;9.902;2022-10-31T06:58:17;16.60;;;7.23;;
9094;SDS011;4583;49.796;9.902;2022-10-31T07:08:19;13.80;;;6.07;;
9094;SDS011;4583;49.796;9.902;2022-10-31T07:18:21;19.57;;;6.60;;
9094;SDS011;4583;49.796;9.902;2022-10-31T07:28:23;11.80;;;6.60;;
9094;SDS011;4583;49.796;9.902;2022-10-31T07:38:25;10.73;;;6.63;;
9094;SDS011;4583;49.796;9.902;2022-10-31T07:48:27;12.40;;;8.07;;
9094;SDS011;4583;49.796;9.902;2022-10-31T07:58:29;14.70;;;7.63;;
9094;SDS011;4583;49.796;9.902;2022-10-31T08:08:30;15.60;;;8.10;;
9094;SDS011;4583;49.796;9.902;2022-10-31T08:18:38;9.40;;;7.33;;
9094;SDS011;4583;49.796;9.902;2022-10-31T08:28:40;10.13;;;5.70;;
9094;SDS011;4583;49.796;9.902;2022-10-31T08:38:41;13.20;;;5.77;;
9094;SDS011;4583;49.796;9.902;2022-10-31T08:48:49;12.33;;;7.37;;
9094;SDS011;4583;49.796;9.902;2022-10-31T08:58:52;21.23;;;6.80;;
9094;SDS011;4583;49.796;9.902;2022-10-31T09:08:54;28.90;;;7.60;;
9094;SDS011;4583;49.796;9.902;2022-10-31T09:18:56;21.07;;;7.83;;
9094;SDS011;4583;49.796;9.902;2022-10-31T09:28:57;33.70;;;9.10;;
9094;SDS011;4583;49.796;9.902;2022-10-31T09:38:59;18.63;;;9.88;;
9094;SDS011;4583;49.796;9.902;2022-10-31T09:59:31;31.93;;;10.33;;
9094;SDS011;4583;49.796;9.902;2022-10-31T10:09:35;69.93;;;10.30;;
9094;SDS011;4583;49.796;9.902;2022-10-31T10:20:16;14.27;;;10.43;;
9094;SDS011;4583;49.796;9.902;2022-10-31T10:30:18;16.50;;;9.63;;
9094;SDS011;4583;49.796;9.902;2022-10-31T10:40:25;27.10;;;10.50;;
9094;SDS011;4583;49.796;9.902;2022-10-31T10:50:34;14.53;;;9.93;;
9094;SDS011;4583;49.796;9.902;2022-10-31T11:00:42;17.57;;;10.90;;
9094;SDS011;4583;49.796;9.902;2022-10-31T11:21:24;16.97;;;10.57;;
9094;SDS011;4583;49.796;9.902;2022-10-31T11:31:29;16.70;;;11.53;;
9094;SDS011;4583;49.796;9.902;2022-10-31T11:41:32;28.80;;;11.70;;
9094;SDS011;4583;49.796;9.902;2022-10-31T11:51:37;19.17;;;11.87;;
9094;SDS011;4583;49.796;9.902;2022-10-31T12:01:45;19.10;;;11.63;;
9094;SDS011;4583;49.796;9.902;2022-10-31T12:22:27;22.37;;;12.13;;
9094;SDS011;4583;49.796;9.902;2022-10-31T12:32:59;24.43;;;13.70;;
9094;SDS011;4583;49.796;9.902;2022-10-31T13:24:13;19.57;;;14.33;;
9094;SDS011;4583;49.796;9.902;2022-10-31T13:34:24;19.17;;;14.37;;
9094;SDS011;4583;49.796;9.902;2022-10-31T13:44:41;24.27;;;15.20;;
9094;SDS011;4583;49.796;9.902;2022-10-31T13:54:44;30.53;;;16.03;;
9094;SDS011;4583;49.796;9.902;2022-10-31T14:04:48;26.23;;;16.73;;
9094;SDS011;4583;49.796;9.902;2022-10-31T14:14:55;30.67;;;17.60;;
9094;SDS011;4583;49.796;9.902;2022-10-31T14:56:20;30.90;;;19.80;;
9094;SDS011;4583;49.796;9.902;2022-10-31T15:06:27;29.53;;;20.20;;
9094;SDS011;4583;49.796;9.902;2022-10-31T15:16:39;27.80;;;18.87;;
9094;SDS011;4583;49.796;9.902;2022-10-31T15:26:45;26.30;;;18.20;;
9094;SDS011;4583;49.796;9.902;2022-10-31T15:36:49;31.13;;;20.13;;
9094;SDS011;4583;49.796;9.902;2022-10-31T15:46:55;28.17;;;19.67;;
9094;SDS011;4583;49.796;9.902;2022-10-31T15:57:17;32.33;;;21.07;;
9094;SDS011;4583;49.796;9.902;2022-10-31T16:07:19;34.77;;;21.37;;
9094;SDS011;4583;49.796;9.902;2022-10-31T16:17:24;56.90;;;21.13;;
9094;SDS011;4583;49.796;9.902;2022-10-31T16:27:28;35.00;;;22.57;;
9094;SDS011;4583;49.796;9.902;2022-10-31T16:37:32;32.13;;;22.03;;
9094;SDS011;4583;49.796;9.902;2022-10-31T16:47:34;30.23;;;21.00;;
9094;SDS011;4583;49.796;9.902;2022-10-31T16:57:36;26.23;;;18.67;;
9094;SDS011;4583;49.796;9.902;2022-10-31T17:07:37;27.47;;;18.27;;
9094;SDS011;4583;49.796;9.902;2022-10-31T17:17:39;23.97;;;17.80;;
9094;SDS011;4583;49.796;9.902;2022-10-31T17:27:41;27.53;;;18.53;;
9094;SDS011;4583;49.796;9.902;2022-10-31T17:37:47;36.57;;;20.13;;
9094;SDS011;4583;49.796;9.902;2022-10-31T17:47:49;29.07;;;20.53;;
9094;SDS011;4583;49.796;9.902;2022-10-31T17:57:52;43.87;;;20.70;;
9094;SDS011;4583;49.796;9.902;2022-10-31T18:07:54;41.30;;;19.10;;
9094;SDS011;4583;49.796;9.902;2022-10-31T18:17:59;33.57;;;20.27;;
9094;SDS011;4583;49.796;9.902;2022-10-31T18:28:01;30.73;;;18.97;;
9094;SDS011;4583;49.796;9.902;2022-10-31T18:38:04;41.97;;;19.97;;
9094;SDS011;4583;49.796;9.902;2022-10-31T18:48:06;71.33;;;21.70;;
9094;SDS011;4583;49.796;9.902;2022-10-31T18:58:12;32.17;;;20.40;;
9094;SDS011;4583;49.796;9.902;2022-10-31T19:08:14;27.40;;;19.70;;
9094;SDS011;4583;49.796;9.902;2022-10-31T19:18:16;55.53;;;20.33;;
9094;SDS011;4583;49.796;9.902;2022-10-31T19:28:17;26.80;;;19.27;;
9094;SDS011;4583;49.796;9.902;2022-10-31T19:38:19;27.83;;;20.13;;
9094;SDS011;4583;49.796;9.902;2022-10-31T19:48:21;32.73;;;20.07;;
9094;SDS011;4583;49.796;9.902;2022-10-31T19:58:23;22.27;;;16.80;;
9094;SDS011;4583;49.796;9.902;2022-10-31T20:08:25;22.30;;;17.20;;
9094;SDS011;4583;49.796;9.902;2022-10-31T20:18:28;66.23;;;18.43;;
9094;SDS011;4583;49.796;9.902;2022-10-31T20:28:31;30.53;;;16.77;;
9094;SDS011;4583;49.796;9.902;2022-10-31T20:38:35;46.13;;;18.60;;
9094;SDS011;4583;49.796;9.902;2022-10-31T20:48:38;54.30;;;16.87;;
9094;SDS011;4583;49.796;9.902;2022-10-31T20:58:41;76.10;;;20.10;;
9094;SDS011;4583;49.796;9.902;2022-10-31T21:08:43;85.03;;;22.57;;
9094;SDS011;4583;49.796;9.902;2022-10-31T21:18:46;23.23;;;17.47;;
9094;SDS011;4583;49.796;9.902;2022-10-31T21:28:51;28.63;;;19.40;;
9094;SDS011;4583;49.796;9.902;2022-10-31T21:38:55;24.53;;;18.83;;
9094;SDS011;4583;49.796;9.902;2022-10-31T21:48:57;25.27;;;18.60;;
9094;SDS011;4583;49.796;9.902;2022-10-31T21:58:59;22.47;;;16.37;;
9094;SDS011;4583;49.796;9.902;2022-10-31T22:09:02;23.37;;;16.20;;
9094;SDS011;4583;49.796;9.902;2022-10-31T22:19:06;19.03;;;14.87;;
9094;SDS011;4583;49.796;9.902;2022-10-31T22:29:11;26.47;;;16.97;;
9094;SDS011;4583;49.796;9.902;2022-10-31T22:39:14;22.63;;;17.00;;
9094;SDS011;4583;49.796;9.902;2022-10-31T22:49:16;19.40;;;14.67;;
9094;SDS011;4583;49.796;9.902;2022-10-31T22:59:18;18.27;;;14.00;;
9094;SDS011;4583;49.796;9.902;2022-10-31T23:09:20;21.60;;;15.53;;
9094;SDS011;4583;49.796;9.902;2022-10-31T23:19:25;19.30;;;14.90;;
9094;SDS011;4583;49.796;9.902;2022-10-31T23:29:28;20.17;;;14.97;;
9094;SDS011;4583;49.796;9.902;2022-10-31T23:39:30;20.13;;;15.53;;
9094;SDS011;4583;49.796;9.902;2022-10-31T23:49:31;19.00;;;14.67;;
9094;SDS011;4583;49.796;9.902;2022-10-31T23:59:33;21.17;;;15.33;;
